Time;durP1;ratioP1;P1;durP2;ratioP2;P2;SDS_P1;SDS_P2;PMS_P1;PMS_P2;Temp;Humidity;BMP_temperature;BMP_pressure;BME280_temperature;BME280_humidity;BME280_pressure;Samples;Min_cycle;Max_cycle;Signal;HPM_P1;HPM_P2
2023/05/02 00:01:01;;;;;;;4.50;1.60;;;;;;;8.05;56.63;101290.86;104321;1258;63948;-48
2023/05/02 00:03:28;;;;;;;9.50;4.50;;;;;;;7.98;56.61;101287.23;107837;1263;66253;-47
2023/05/02 00:05:55;;;;;;;8.50;4.30;;;;;;;7.91;56.62;101288.09;104413;1257;60919;-46
2023/05/02 00:08:22;;;;;;;6.60;2.40;;;;;;;7.83;56.60;101293.60;104512;1258;60431;-47
2023/05/02 00:10:49;;;;;;;8.00;4.70;;;;;;;7.76;56.62;101293.25;104337;1267;67337;-48
2023/05/02 00:13:15;;;;;;;5.70;2.60;;;;;;;7.69;56.69;101294.19;104410;1267;63667;-47
2023/05/02 00:15:44;;;;;;;8.80;5.10;;;;;;;7.62;56.75;101301.85;104423;1261;66509;-48
2023/05/02 00:18:11;;;;;;;9.70;5.00;;;;;;;7.57;57.01;101302.98;104540;1261;61042;-48
2023/05/02 00:20:40;;;;;;;5.30;1.90;;;;;;;7.52;57.21;101304.48;104408;1263;60549;-48
2023/05/02 00:23:07;;;;;;;7.70;4.90;;;;;;;7.52;57.62;101311.83;104569;1258;66976;-50
2023/05/02 00:25:34;;;;;;;7.40;4.50;;;;;;;7.56;57.71;101316.48;104476;1263;63506;-47
2023/05/02 00:28:01;;;;;;;5.90;1.90;;;;;;;7.64;57.83;101319.26;104545;1263;66086;-47
2023/05/02 00:30:28;;;;;;;7.70;4.90;;;;;;;7.67;57.85;101321.04;104569;1257;60558;-48
2023/05/02 00:32:55;;;;;;;8.60;5.70;;;;;;;7.67;57.81;101322.24;106954;1257;59368;-47
2023/05/02 00:35:23;;;;;;;7.10;2.40;;;;;;;7.67;57.88;101323.13;107043;1262;66421;-47
2023/05/02 00:37:50;;;;;;;10.00;5.70;;;;;;;7.67;57.81;101321.36;104514;1257;63730;-48
2023/05/02 00:40:17;;;;;;;10.00;5.50;;;;;;;7.65;57.84;101319.73;104563;1261;66006;-47
2023/05/02 00:42:44;;;;;;;11.20;6.20;;;;;;;7.60;57.82;101321.85;104357;1257;60554;-48
2023/05/02 00:45:11;;;;;;;9.70;2.70;;;;;;;7.56;57.84;101322.61;104497;1263;60362;-47
2023/05/02 00:47:38;;;;;;;9.10;6.00;;;;;;;7.50;57.88;101325.36;104480;1261;67565;-47
2023/05/02 00:50:06;;;;;;;10.00;6.20;;;;;;;7.43;57.85;101325.71;104599;1258;64227;-48
2023/05/02 00:52:33;;;;;;;11.30;7.40;;;;;;;7.39;57.85;101329.77;105037;1261;65214;-48
2023/05/02 00:55:00;;;;;;;7.90;2.60;;;;;;;7.34;57.66;101332.66;104492;1257;60539;-47
2023/05/02 00:57:27;;;;;;;7.50;3.60;;;;;;;7.25;57.57;101336.77;104566;1260;60378;-47
2023/05/02 00:59:55;;;;;;;9.70;6.50;;;;;;;7.16;57.66;101336.89;104513;1257;67461;-47
2023/05/02 01:02:45;;;;;;;11.60;7.50;;;;;;;7.08;57.79;101336.05;104588;1261;62521;-47
2023/05/02 01:05:43;;;;;;;16.90;5.90;;;;;;;7.00;57.79;101341.52;104605;1260;66079;-47
2023/05/02 01:08:21;;;;;;;10.10;4.30;;;;;;;6.93;58.02;101343.45;105627;1259;60574;-48
2023/05/02 01:11:06;;;;;;;12.00;8.00;;;;;;;6.88;58.18;101342.27;107388;1260;60466;-48
2023/05/02 01:13:34;;;;;;;6.80;2.50;;;;;;;6.83;58.12;101347.05;105116;1257;66284;-47
2023/05/02 01:16:02;;;;;;;7.10;1.80;;;;;;;6.85;58.10;101347.30;104567;1261;62853;-48
2023/05/02 01:18:31;;;;;;;10.40;7.00;;;;;;;6.92;57.93;101348.05;108630;1257;66302;-47
2023/05/02 01:21:00;;;;;;;11.50;7.10;;;;;;;6.97;57.71;101346.89;104989;1264;60765;-47
2023/05/02 01:24:04;;;;;;;10.10;6.90;;;;;;;7.01;57.77;101348.80;106218;1258;60504;-49
2023/05/02 01:26:33;;;;;;;5.80;2.50;;;;;;;7.01;57.80;101350.73;108566;1257;66071;-47
2023/05/02 01:29:01;;;;;;;13.60;7.00;;;;;;;6.99;57.97;101351.02;104525;1264;63791;-46
2023/05/02 01:31:35;;;;;;;9.40;4.10;;;;;;;6.98;58.22;101354.05;106816;1258;65110;-48
2023/05/02 01:34:04;;;;;;;13.70;8.00;;;;;;;6.94;58.37;101355.63;108384;1257;59073;-48
2023/05/02 01:36:31;;;;;;;7.40;3.70;;;;;;;6.90;58.64;101358.05;108613;1257;58596;-49
2023/05/02 01:38:59;;;;;;;11.00;7.40;;;;;;;6.87;58.94;101357.70;107627;1260;67325;-49
2023/05/02 01:41:28;;;;;;;12.20;7.70;;;;;;;6.86;59.02;101363.14;108616;1256;63675;-48
2023/05/02 01:43:56;;;;;;;14.30;8.60;;;;;;;6.85;59.11;101368.45;106827;1259;65260;-47
2023/05/02 01:46:25;;;;;;;9.30;3.50;;;;;;;6.80;58.92;101369.39;104352;1257;61334;-47
2023/05/02 01:48:52;;;;;;;12.10;7.30;;;;;;;6.73;59.01;101371.27;104557;1256;60536;-50
2023/05/02 01:51:19;;;;;;;8.60;4.00;;;;;;;6.68;59.23;101369.38;104159;1257;67369;-48
2023/05/02 01:53:47;;;;;;;12.90;7.40;;;;;;;6.66;59.45;101369.70;104325;1257;63434;-48
2023/05/02 01:56:15;;;;;;;7.80;2.60;;;;;;;6.63;59.45;101373.48;104555;1259;66446;-48
2023/05/02 01:58:42;;;;;;;10.00;6.90;;;;;;;6.65;59.50;101373.92;104702;1257;60520;-48
2023/05/02 02:01:09;;;;;;;5.60;2.30;;;;;;;6.71;59.38;101377.13;104544;1264;60544;-47
2023/05/02 02:03:36;;;;;;;11.60;7.40;;;;;;;6.76;59.29;101374.09;106490;1258;66171;-47
2023/05/02 02:06:03;;;;;;;10.50;7.70;;;;;;;6.82;59.40;101369.80;105087;1260;72954;-47
2023/05/02 02:08:30;;;;;;;7.40;2.50;;;;;;;6.85;59.43;101365.77;104491;1263;65249;-47
2023/05/02 02:10:59;;;;;;;14.50;7.50;;;;;;;6.86;59.38;101369.05;106734;1260;60527;-47
2023/05/02 02:13:30;;;;;;;14.10;8.20;;;;;;;6.85;59.29;101373.80;108697;1257;58681;-48
2023/05/02 02:15:58;;;;;;;12.30;7.80;;;;;;;6.85;59.34;101372.27;108607;1257;69838;-47
2023/05/02 02:18:25;;;;;;;9.50;3.70;;;;;;;6.86;59.29;101373.77;108653;1263;63927;-46
2023/05/02 02:20:52;;;;;;;10.70;7.40;;;;;;;6.85;59.29;101374.16;105159;1267;65076;-47
2023/05/02 02:23:20;;;;;;;12.20;7.60;;;;;;;6.80;59.40;101376.66;106152;1259;60658;-47
2023/05/02 02:25:49;;;;;;;8.60;4.00;;;;;;;6.76;59.69;101378.27;105675;1257;60454;-48
2023/05/02 02:28:16;;;;;;;12.00;7.90;;;;;;;6.70;59.85;101380.64;104405;1259;67266;-47
2023/05/02 02:30:43;;;;;;;8.70;4.10;;;;;;;6.66;60.00;101381.71;104579;1257;63650;-48
2023/05/02 02:33:10;;;;;;;12.30;8.30;;;;;;;6.61;60.06;101374.45;104559;1260;66400;-48
2023/05/02 02:35:39;;;;;;;10.00;3.50;;;;;;;6.56;59.96;101372.09;104527;1261;60487;-48
2023/05/02 02:38:30;;;;;;;14.30;7.90;;;;;;;6.49;60.02;101374.48;104356;1260;60743;-49
2023/05/02 02:41:07;;;;;;;8.90;3.20;;;;;;;6.41;59.99;101380.24;105209;1262;67504;-48
2023/05/02 02:43:52;;;;;;;7.80;2.70;;;;;;;6.40;60.15;101382.59;104486;1257;62751;-48
2023/05/02 02:46:30;;;;;;;7.20;3.00;;;;;;;6.41;60.28;101382.54;104435;1260;66211;-47
2023/05/02 02:49:11;;;;;;;12.30;7.40;;;;;;;6.47;60.34;101384.00;104326;1264;60534;-47
2023/05/02 02:51:49;;;;;;;7.90;2.60;;;;;;;6.56;60.28;101386.52;105029;1260;60560;-47
2023/05/02 02:54:29;;;;;;;14.20;8.30;;;;;;;6.61;60.34;101392.61;104886;1257;66433;-47
2023/05/02 02:57:13;;;;;;;12.20;9.30;;;;;;;6.61;60.30;101396.24;108668;1257;63977;-46
2023/05/02 02:59:45;;;;;;;7.40;2.70;;;;;;;6.60;60.19;101396.64;105772;1262;66286;-49
2023/05/02 03:02:14;;;;;;;14.30;9.30;;;;;;;6.57;60.10;101400.64;104900;1257;60545;-48
2023/05/02 03:04:41;;;;;;;15.00;9.60;;;;;;;6.52;59.94;101403.11;105644;1259;60558;-48
2023/05/02 03:07:08;;;;;;;8.40;3.70;;;;;;;6.46;59.84;101403.57;104410;1263;67538;-47
2023/05/02 03:09:45;;;;;;;10.40;4.60;;;;;;;6.40;59.91;101403.14;104277;1263;62797;-47
2023/05/02 03:12:15;;;;;;;11.60;4.70;;;;;;;6.35;59.96;101407.39;104748;1258;64671;-48
2023/05/02 03:14:42;;;;;;;12.60;8.80;;;;;;;6.29;59.86;101411.16;106515;1257;60373;-46
2023/05/02 03:17:10;;;;;;;15.80;9.80;;;;;;;6.23;59.84;101414.92;104627;1258;58932;-46
2023/05/02 03:19:37;;;;;;;8.00;3.70;;;;;;;6.19;59.81;101418.23;108462;1257;66272;-48
2023/05/02 03:22:04;;;;;;;8.80;4.10;;;;;;;6.17;59.86;101418.16;108596;1258;62459;-47
2023/05/02 03:24:32;;;;;;;15.40;9.70;;;;;;;6.15;60.02;101417.17;108600;1259;66481;-47
2023/05/02 03:26:59;;;;;;;7.20;3.00;;;;;;;6.19;60.08;101415.25;106866;1259;60307;-46
2023/05/02 03:29:29;;;;;;;13.70;8.60;;;;;;;6.29;59.92;101413.20;108568;1259;59222;-47
2023/05/02 03:31:55;;;;;;;6.80;3.00;;;;;;;6.42;59.58;101418.19;104463;1257;67314;-47
2023/05/02 03:34:23;;;;;;;14.40;8.90;;;;;;;6.56;59.45;101421.07;106889;1258;63754;-47
2023/05/02 03:36:50;;;;;;;8.20;3.10;;;;;;;6.69;59.31;101427.42;104561;1261;68745;-47
2023/05/02 03:39:19;;;;;;;15.60;9.70;;;;;;;6.81;59.29;101431.05;104494;1261;60940;-47
2023/05/02 03:41:46;;;;;;;14.60;10.00;;;;;;;6.89;59.31;101432.23;104308;1260;59769;-47
2023/05/02 03:44:15;;;;;;;10.80;4.20;;;;;;;6.96;59.30;101435.92;108701;1257;68256;-48
2023/05/02 03:46:42;;;;;;;14.50;9.50;;;;;;;7.03;59.34;101443.11;105581;1257;63755;-48
2023/05/02 03:49:09;;;;;;;14.90;9.40;;;;;;;7.09;59.34;101444.55;104410;1257;65985;-47
2023/05/02 03:51:39;;;;;;;14.80;9.60;;;;;;;7.14;59.27;101447.26;104375;1257;60526;-47
2023/05/02 03:54:08;;;;;;;8.00;3.50;;;;;;;7.19;59.29;101450.33;104451;1259;60995;-47
2023/05/02 03:56:38;;;;;;;14.40;9.00;;;;;;;7.22;59.23;101453.16;108589;1262;67592;-48
2023/05/02 03:59:13;;;;;;;15.40;9.40;;;;;;;7.25;59.15;101454.05;106577;1262;62617;-48
2023/05/02 04:01:40;;;;;;;9.00;4.30;;;;;;;7.30;59.26;101458.73;104299;1260;64967;-48
2023/05/02 04:04:10;;;;;;;13.80;9.40;;;;;;;7.34;59.23;101461.14;104323;1257;60460;-47
2023/05/02 04:06:44;;;;;;;8.00;2.80;;;;;;;7.40;59.38;101463.13;106368;1259;59257;-47
2023/05/02 04:09:11;;;;;;;19.70;9.40;;;;;;;7.51;59.51;101464.84;104595;1257;67431;-48
2023/05/02 04:11:46;;;;;;;14.20;8.40;;;;;;;7.65;59.79;101466.92;104388;1259;62797;-48
2023/05/02 04:14:13;;;;;;;15.80;8.00;;;;;;;7.82;59.98;101467.84;104324;1258;64901;-48
2023/05/02 04:30:12;;;;;;;10.70;7.80;;;;;;;8.63;61.02;101459.43;102478;1289;605190;-47
2023/05/02 04:32:42;;;;;;;16.20;9.40;;;;;;;9.43;60.16;101457.85;107437;1264;112399;-47
2023/05/02 04:35:10;;;;;;;14.80;8.80;;;;;;;9.55;60.20;101461.73;104217;1263;59234;-47
2023/05/02 04:37:37;;;;;;;14.20;9.50;;;;;;;9.62;60.40;101465.71;104256;1269;67635;-49
2023/05/02 04:40:06;;;;;;;14.60;7.80;;;;;;;9.68;60.45;101466.42;104212;1264;64637;-50
2023/05/02 04:42:33;;;;;;;13.00;7.10;;;;;;;9.80;60.39;101466.56;104764;1266;66507;-47
2023/05/02 04:45:10;;;;;;;13.00;6.70;;;;;;;9.98;59.91;101466.59;104162;1264;59282;-47
2023/05/02 04:47:37;;;;;;;10.00;6.00;;;;;;;10.12;59.31;101464.13;104737;1263;59200;-47
2023/05/02 04:50:06;;;;;;;8.80;4.80;;;;;;;10.25;58.41;101467.06;104731;1266;65695;-47
2023/05/02 04:52:32;;;;;;;7.50;4.70;;;;;;;10.36;57.32;101470.10;104703;1266;64068;-46
2023/05/02 04:54:59;;;;;;;7.80;4.50;;;;;;;10.46;56.52;101473.32;104639;1264;66243;-47
2023/05/02 04:57:26;;;;;;;10.00;3.50;;;;;;;10.55;55.74;101477.65;104738;1263;59995;-48
2023/05/02 04:59:56;;;;;;;8.50;3.60;;;;;;;10.63;54.77;101478.27;104713;1266;59243;-47
2023/05/02 05:02:27;;;;;;;7.80;3.90;;;;;;;10.68;53.83;101480.55;106972;1265;66352;-47
2023/05/02 05:04:56;;;;;;;8.90;3.90;;;;;;;10.72;53.20;101479.40;104654;1263;63898;-47
2023/05/02 05:07:24;;;;;;;8.50;4.10;;;;;;;10.76;52.86;101478.84;106018;1260;66218;-48
2023/05/02 05:09:52;;;;;;;7.50;3.30;;;;;;;10.79;52.33;101478.98;108312;1263;57719;-48
2023/05/02 05:12:21;;;;;;;8.80;3.00;;;;;;;10.83;50.79;101481.88;108433;1263;57836;-48
2023/05/02 05:14:49;;;;;;;7.70;2.90;;;;;;;10.87;49.63;101483.20;104551;1262;65309;-48
2023/05/02 05:17:17;;;;;;;6.20;2.90;;;;;;;10.92;48.95;101482.55;104468;1264;63817;-48
2023/05/02 05:19:44;;;;;;;6.90;3.20;;;;;;;10.96;48.55;101487.17;108445;1261;66506;-47
2023/05/02 05:22:11;;;;;;;8.00;3.10;;;;;;;11.02;48.23;101487.05;104765;1269;59858;-47
2023/05/02 05:24:38;;;;;;;6.50;3.20;;;;;;;11.05;47.76;101488.02;104547;1265;60223;-47
2023/05/02 05:27:05;;;;;;;6.90;3.30;;;;;;;11.09;47.37;101488.66;104504;1268;66513;-48
2023/05/02 05:29:32;;;;;;;9.10;3.40;;;;;;;11.13;47.19;101489.82;104552;1264;64346;-48
2023/05/02 05:31:59;;;;;;;7.50;3.40;;;;;;;11.18;47.13;101488.59;108243;1265;74689;-49
2023/05/02 05:34:27;;;;;;;7.90;3.80;;;;;;;11.24;47.09;101485.39;107721;1260;60230;-48
2023/05/02 05:36:56;;;;;;;11.00;3.40;;;;;;;11.31;46.99;101483.20;104295;1262;59280;-47
2023/05/02 05:39:24;;;;;;;6.30;2.80;;;;;;;11.38;46.88;101484.86;104390;1263;67521;-47
2023/05/02 05:41:53;;;;;;;6.90;2.90;;;;;;;11.45;46.63;101485.45;104625;1257;63528;-47
2023/05/02 05:44:21;;;;;;;7.40;3.30;;;;;;;11.52;46.62;101489.01;108652;1257;65979;-47
2023/05/02 05:46:48;;;;;;;8.80;3.50;;;;;;;11.60;46.63;101490.45;105759;1260;59749;-46
2023/05/02 05:49:17;;;;;;;6.40;3.10;;;;;;;11.68;46.67;101493.22;106307;1260;59331;-46
2023/05/02 05:51:46;;;;;;;6.60;2.90;;;;;;;11.78;46.52;101492.02;105389;1258;66618;-48
2023/05/02 05:54:15;;;;;;;7.20;2.60;;;;;;;11.88;45.59;101492.06;106839;1260;71532;-50
2023/05/02 05:56:43;;;;;;;5.70;2.80;;;;;;;11.95;45.10;101493.16;106379;1259;66488;-47
2023/05/02 05:59:13;;;;;;;7.80;2.60;;;;;;;12.02;44.29;101490.80;104433;1260;59640;-46
2023/05/02 06:01:40;;;;;;;5.40;2.40;;;;;;;12.07;43.56;101490.23;104452;1259;60146;-47
2023/05/02 06:04:07;;;;;;;5.20;2.60;;;;;;;12.13;43.27;101484.90;104485;1257;66583;-47
2023/05/02 06:06:38;;;;;;;6.10;2.50;;;;;;;12.20;43.16;101481.64;104433;1263;63854;-49
2023/05/02 06:09:05;;;;;;;6.10;2.50;;;;;;;12.27;42.98;101480.95;104773;1260;66179;-47
2023/05/02 06:11:32;;;;;;;7.00;2.60;;;;;;;12.33;42.81;101482.47;104352;1264;60187;-49
2023/05/02 06:13:59;;;;;;;7.00;2.00;;;;;;;12.41;42.67;101478.95;104514;1264;59615;-49
2023/05/02 06:16:26;;;;;;;5.20;1.90;;;;;;;12.50;42.40;101481.69;107370;1260;65465;-49
2023/05/02 06:18:54;;;;;;;5.90;2.60;;;;;;;12.59;41.96;101481.04;104394;1263;62573;-50
2023/05/02 06:21:21;;;;;;;7.20;2.40;;;;;;;12.68;41.40;101480.23;107075;1259;65135;-47
2023/05/02 06:23:47;;;;;;;6.90;2.40;;;;;;;12.78;40.75;101481.98;104501;1257;62057;-48
2023/05/02 06:26:15;;;;;;;7.20;2.70;;;;;;;12.87;40.28;101488.56;104559;1257;59664;-48
2023/05/02 06:28:43;;;;;;;7.60;2.20;;;;;;;12.95;39.66;101489.20;104679;1258;65448;-48
2023/05/02 06:31:10;;;;;;;5.20;2.00;;;;;;;13.02;39.25;101487.43;106593;1261;63349;-47
2023/05/02 06:33:37;;;;;;;7.20;2.50;;;;;;;13.11;39.09;101489.64;104522;1260;66508;-47
2023/05/02 06:36:04;;;;;;;9.60;2.50;;;;;;;13.18;39.41;101489.63;108207;1257;59041;-46
2023/05/02 06:38:31;;;;;;;4.80;2.20;;;;;;;13.27;39.31;101488.83;105355;1260;60391;-48
2023/05/02 06:40:58;;;;;;;5.30;2.00;;;;;;;13.35;39.25;101486.98;104587;1260;67044;-47
2023/05/02 06:43:25;;;;;;;6.00;1.80;;;;;;;13.45;39.21;101488.77;106864;1260;63325;-47
2023/05/02 06:45:53;;;;;;;6.90;2.40;;;;;;;13.55;39.17;101493.48;104325;1260;66005;-47
2023/05/02 06:48:21;;;;;;;5.10;2.30;;;;;;;13.66;39.65;101493.57;106186;1260;59565;-46
2023/05/02 06:50:48;;;;;;;5.50;2.30;;;;;;;13.77;39.45;101492.89;108058;1259;58010;-48
2023/05/02 06:53:15;;;;;;;5.70;2.30;;;;;;;13.87;38.95;101492.14;104559;1259;66396;-46
2023/05/02 06:55:43;;;;;;;8.60;2.60;;;;;;;13.96;38.92;101493.37;104557;1258;63770;-47
2023/05/02 06:58:10;;;;;;;7.30;2.20;;;;;;;14.04;38.27;101492.77;105715;1257;65898;-48
2023/05/02 07:00:37;;;;;;;5.50;2.00;;;;;;;14.11;38.44;101492.93;104525;1257;59767;-47
2023/05/02 07:03:04;;;;;;;5.90;1.80;;;;;;;14.20;38.69;101494.52;105220;1257;59574;-50
2023/05/02 07:05:31;;;;;;;4.10;1.60;;;;;;;14.29;38.86;101492.60;105831;1263;66573;-47
2023/05/02 07:07:59;;;;;;;6.10;1.90;;;;;;;14.36;38.48;101490.25;104560;1257;63618;-46
2023/05/02 07:10:26;;;;;;;7.00;1.70;;;;;;;14.45;38.18;101491.72;104388;1260;66108;-48
2023/05/02 07:12:53;;;;;;;4.80;1.60;;;;;;;14.52;37.83;101493.80;106047;1260;59297;-47
2023/05/02 07:15:20;;;;;;;6.10;2.00;;;;;;;14.60;37.65;101495.86;104541;1260;59727;-48
2023/05/02 07:17:48;;;;;;;4.50;1.40;;;;;;;14.68;37.55;101489.43;104362;1260;65352;-50
2023/05/02 07:20:15;;;;;;;6.70;1.70;;;;;;;14.77;37.93;101493.63;104647;1258;63679;-46
2023/05/02 07:22:42;;;;;;;7.50;1.90;;;;;;;14.86;37.76;101493.23;104586;1258;65202;-47
2023/05/02 07:25:09;;;;;;;6.20;1.70;;;;;;;14.92;36.74;101491.86;104697;1258;59595;-47
2023/05/02 07:27:36;;;;;;;7.50;1.80;;;;;;;14.98;35.98;101493.89;104738;1256;59868;-48
2023/05/02 07:30:05;;;;;;;9.00;1.80;;;;;;;15.04;36.28;101488.98;105194;1259;75293;-48
2023/05/02 07:32:32;;;;;;;4.40;1.50;;;;;;;15.09;35.81;101490.67;106036;1259;62778;-48
2023/05/02 07:35:00;;;;;;;8.90;1.70;;;;;;;15.14;35.22;101491.05;104705;1256;67473;-46
2023/05/02 07:37:31;;;;;;;4.90;1.70;;;;;;;15.17;35.15;101488.80;107147;1254;59668;-47
2023/05/02 07:40:00;;;;;;;6.50;2.20;;;;;;;15.19;35.42;101489.32;106934;1259;59282;-49
2023/05/02 07:42:29;;;;;;;11.00;1.80;;;;;;;15.25;35.29;101490.58;104757;1259;65463;-46
2023/05/02 07:44:56;;;;;;;4.10;1.40;;;;;;;15.32;35.10;101494.11;105438;1259;62954;-52
2023/05/02 07:47:23;;;;;;;5.40;1.10;;;;;;;15.39;35.09;101491.75;106819;1256;66262;-47
2023/05/02 07:49:51;;;;;;;6.10;1.60;;;;;;;15.46;34.39;101488.20;105521;1257;61505;-47
2023/05/02 07:52:19;;;;;;;4.20;1.50;;;;;;;15.52;33.98;101486.84;108205;1255;58045;-46
2023/05/02 07:54:50;;;;;;;5.80;1.50;;;;;;;15.56;33.57;101491.05;104649;1257;66509;-46
2023/05/02 07:57:17;;;;;;;8.90;2.30;;;;;;;15.61;33.61;101489.02;105810;1258;62554;-48
2023/05/02 07:59:44;;;;;;;8.00;1.90;;;;;;;15.67;33.37;101491.41;104690;1259;66394;-48
2023/05/02 08:02:12;;;;;;;9.60;2.40;;;;;;;15.72;33.11;101490.58;105544;1254;59627;-48
2023/05/02 08:04:40;;;;;;;8.20;2.60;;;;;;;15.77;32.70;101495.67;104572;1257;62331;-48
2023/05/02 08:07:07;;;;;;;8.10;3.00;;;;;;;15.81;31.58;101491.98;104717;1254;66250;-47
2023/05/02 08:09:34;;;;;;;11.10;3.10;;;;;;;15.86;31.53;101487.86;104783;1257;63952;-47
2023/05/02 08:12:02;;;;;;;10.70;3.00;;;;;;;15.92;31.73;101487.00;104482;1257;65220;-51
2023/05/02 08:14:29;;;;;;;16.40;2.90;;;;;;;15.98;31.95;101482.24;104737;1257;59784;-49
2023/05/02 08:16:57;;;;;;;11.70;2.50;;;;;;;16.05;31.95;101482.20;104580;1259;59724;-48
2023/05/02 08:19:24;;;;;;;5.80;1.90;;;;;;;16.12;32.08;101485.61;106358;1259;66902;-48
2023/05/02 08:21:54;;;;;;;5.40;1.50;;;;;;;16.20;31.39;101483.41;104608;1257;63903;-48
2023/05/02 08:24:22;;;;;;;7.90;1.90;;;;;;;16.27;30.75;101479.42;105599;1257;65105;-48
2023/05/02 08:26:49;;;;;;;5.60;1.60;;;;;;;16.36;30.42;101477.61;104681;1254;59635;-50
2023/05/02 08:29:16;;;;;;;6.90;1.20;;;;;;;16.43;29.99;101475.02;104712;1259;59629;-49
2023/05/02 08:31:43;;;;;;;4.50;1.00;;;;;;;16.50;29.73;101472.83;104535;1255;66823;-46
2023/05/02 08:34:10;;;;;;;4.40;1.20;;;;;;;16.56;29.45;101470.30;104692;1259;73275;-48
2023/05/02 08:36:37;;;;;;;4.10;1.30;;;;;;;16.63;29.83;101472.42;104636;1257;65171;-47
2023/05/02 08:39:06;;;;;;;10.60;1.80;;;;;;;16.69;30.21;101472.71;104637;1262;60371;-46
2023/05/02 08:41:33;;;;;;;6.40;2.10;;;;;;;16.76;29.50;101468.05;104542;1259;60613;-47
2023/05/02 08:44:01;;;;;;;8.30;2.10;;;;;;;16.81;29.31;101465.97;104488;1257;67730;-47
2023/05/02 08:46:28;;;;;;;8.80;2.00;;;;;;;16.86;29.02;101464.48;104621;1259;63981;-47
2023/05/02 08:48:57;;;;;;;8.10;2.00;;;;;;;16.90;29.20;101460.58;105109;1257;66678;-47
2023/05/02 08:51:24;;;;;;;10.10;2.30;;;;;;;16.95;28.84;101458.77;108765;1256;58606;-47
2023/05/02 08:53:51;;;;;;;6.30;2.00;;;;;;;17.00;29.17;101460.10;105356;1262;60446;-46
2023/05/02 08:56:18;;;;;;;8.60;1.90;;;;;;;17.08;28.75;101457.55;106472;1254;77066;-48
2023/05/02 08:58:45;;;;;;;7.70;1.90;;;;;;;17.15;28.84;101461.20;108728;1257;63458;-47
2023/05/02 09:01:14;;;;;;;6.00;2.10;;;;;;;17.23;28.92;101458.04;105832;1257;65886;-50
2023/05/02 09:03:45;;;;;;;7.60;3.00;;;;;;;17.31;28.84;101456.20;105896;1257;60520;-48
2023/05/02 09:06:20;;;;;;;9.20;1.90;;;;;;;17.40;29.15;101451.86;104627;1257;60793;-47
2023/05/02 09:08:48;;;;;;;10.10;2.30;;;;;;;17.47;29.35;101443.55;105700;1257;66436;-48
2023/05/02 09:11:15;;;;;;;7.00;1.80;;;;;;;17.52;29.53;101440.81;105164;1257;63887;-51
2023/05/02 09:13:46;;;;;;;7.60;1.90;;;;;;;17.57;29.42;101432.40;104922;1254;64987;-47
2023/05/02 09:16:14;;;;;;;8.00;1.80;;;;;;;17.61;28.90;101433.21;104870;1257;61098;-47
2023/05/02 09:18:45;;;;;;;5.00;1.80;;;;;;;17.66;29.02;101429.79;104748;1255;60562;-47
2023/05/02 09:21:14;;;;;;;8.90;2.10;;;;;;;17.69;28.79;101426.10;104588;1255;67708;-47
2023/05/02 09:23:46;;;;;;;9.20;2.10;;;;;;;17.73;28.55;101422.04;104928;1257;63579;-47
2023/05/02 09:26:23;;;;;;;6.90;1.90;;;;;;;17.78;28.46;101422.58;104795;1257;66409;-47
2023/05/02 09:28:52;;;;;;;5.90;1.60;;;;;;;17.84;28.35;101417.77;106375;1257;60399;-47
2023/05/02 09:31:24;;;;;;;8.60;2.50;;;;;;;17.90;29.13;101411.52;107250;1259;59248;-47
2023/05/02 09:33:55;;;;;;;7.60;2.40;;;;;;;18.00;28.88;101406.70;104607;1259;67302;-48
2023/05/02 09:36:23;;;;;;;14.00;2.60;;;;;;;18.09;28.88;101405.48;108148;1257;63442;-46
2023/05/02 09:38:50;;;;;;;6.30;1.70;;;;;;;18.19;29.12;101405.08;104620;1257;66234;-47
2023/05/02 09:41:18;;;;;;;5.70;1.90;;;;;;;18.28;29.42;101402.39;104427;1262;60461;-45
2023/05/02 09:43:54;;;;;;;5.60;1.90;;;;;;;18.37;29.41;101397.11;104776;1259;60309;-47
2023/05/02 09:46:21;;;;;;;7.30;1.60;;;;;;;18.46;29.11;101395.18;104599;1256;66246;-49
2023/05/02 09:48:54;;;;;;;8.80;2.60;;;;;;;18.53;28.59;101391.88;106514;1259;64297;-48
2023/05/02 09:51:23;;;;;;;7.00;1.70;;;;;;;18.59;28.74;101390.54;107313;1254;66055;-46
2023/05/02 09:53:50;;;;;;;4.90;1.80;;;;;;;18.69;28.93;101389.75;104757;1256;60561;-46
2023/05/02 09:56:17;;;;;;;8.30;2.20;;;;;;;18.81;28.15;101390.18;104859;1259;60698;-46
2023/05/02 09:58:44;;;;;;;11.40;2.40;;;;;;;18.83;27.87;101387.52;104670;1258;66126;-47
2023/05/02 10:01:15;;;;;;;8.10;1.30;;;;;;;18.86;27.77;101391.85;104750;1256;63728;-48
2023/05/02 10:03:45;;;;;;;3.90;1.40;;;;;;;18.92;27.74;101394.05;108361;1254;65944;-47
2023/05/02 10:06:17;;;;;;;5.40;1.30;;;;;;;18.97;27.62;101391.92;106719;1254;60472;-47
2023/05/02 10:08:46;;;;;;;6.40;1.80;;;;;;;19.04;27.25;101389.14;104969;1257;60457;-48
2023/05/02 10:11:13;;;;;;;4.40;1.30;;;;;;;19.10;27.69;101389.60;106339;1257;66001;-46
2023/05/02 10:13:41;;;;;;;5.00;1.50;;;;;;;19.15;27.65;101389.27;104451;1255;63769;-46
2023/05/02 10:16:09;;;;;;;4.60;1.10;;;;;;;19.21;27.94;101387.64;104635;1257;66336;-45
2023/05/02 10:18:47;;;;;;;6.60;1.40;;;;;;;19.30;27.89;101387.65;104721;1259;59635;-45
2023/05/02 10:21:22;;;;;;;6.70;1.70;;;;;;;19.39;28.02;101387.25;108699;1255;58619;-46
2023/05/02 10:23:52;;;;;;;6.70;2.00;;;;;;;19.49;28.18;101386.38;106372;1258;66460;-45
2023/05/02 10:26:25;;;;;;;5.30;1.90;;;;;;;19.56;27.30;101386.59;104677;1257;63488;-45
2023/05/02 10:28:51;;;;;;;5.50;1.80;;;;;;;19.62;26.62;101388.03;105993;1254;66461;-45
2023/05/02 10:31:18;;;;;;;7.50;1.60;;;;;;;19.70;26.65;101380.00;105917;1260;61505;-45
2023/05/02 10:33:46;;;;;;;7.30;1.90;;;;;;;19.74;26.61;101376.58;105099;1254;60645;-46
2023/05/02 10:36:13;;;;;;;4.30;1.50;;;;;;;19.78;27.02;101383.45;105980;1261;66309;-45
2023/05/02 10:38:41;;;;;;;4.30;1.50;;;;;;;19.86;26.73;101381.93;105103;1259;63948;-50
2023/05/02 10:41:16;;;;;;;4.40;1.50;;;;;;;19.95;27.02;101373.11;105223;1257;65115;-46
2023/05/02 10:43:47;;;;;;;5.70;1.80;;;;;;;20.05;26.85;101375.46;106042;1257;60492;-48
2023/05/02 10:46:33;;;;;;;7.80;2.30;;;;;;;20.13;26.48;101377.89;106927;1257;60488;-46
2023/05/02 10:49:00;;;;;;;8.20;2.30;;;;;;;20.17;26.11;101377.36;104682;1257;67071;-46
2023/05/02 10:51:30;;;;;;;7.10;1.90;;;;;;;20.17;25.89;101374.17;104710;1259;62686;-46
2023/05/02 10:54:16;;;;;;;7.60;2.10;;;;;;;20.17;26.35;101367.69;106260;1257;66074;-46
2023/05/02 10:57:02;;;;;;;4.90;1.30;;;;;;;20.16;26.56;101363.45;104729;1257;60562;-46
2023/05/02 10:59:30;;;;;;;5.00;1.80;;;;;;;20.14;26.35;101363.84;107447;1257;60473;-47
2023/05/02 11:01:57;;;;;;;7.80;1.30;;;;;;;20.15;26.03;101367.48;107118;1254;67425;-47
2023/05/02 11:04:24;;;;;;;4.40;1.70;;;;;;;20.15;26.30;101368.71;104695;1257;62682;-46
2023/05/02 11:07:03;;;;;;;7.90;2.00;;;;;;;20.20;27.00;101364.83;104689;1257;64929;-45
2023/05/02 11:09:32;;;;;;;6.60;2.00;;;;;;;20.29;26.44;101356.45;104760;1256;60439;-46
2023/05/02 11:12:00;;;;;;;5.40;1.80;;;;;;;20.34;26.14;101350.04;105203;1255;65077;-47
2023/05/02 11:14:33;;;;;;;7.40;2.20;;;;;;;20.38;26.09;101346.16;104782;1254;67155;-45
2023/05/02 11:17:00;;;;;;;7.70;2.10;;;;;;;20.44;25.97;101345.73;104605;1257;63648;-52
2023/05/02 11:19:28;;;;;;;4.10;1.70;;;;;;;20.48;25.42;101344.02;106265;1258;66217;-46
2023/05/02 11:22:22;;;;;;;5.30;1.50;;;;;;;20.51;25.71;101343.75;104635;1257;60577;-46
2023/05/02 11:24:49;;;;;;;8.30;2.20;;;;;;;20.56;26.46;101341.75;104697;1259;60456;-45
2023/05/02 11:27:29;;;;;;;9.20;1.80;;;;;;;20.61;26.32;101343.37;104873;1259;67272;-46
2023/05/02 11:30:00;;;;;;;6.40;1.40;;;;;;;20.71;25.95;101346.27;104797;1259;62708;-46
2023/05/02 11:32:43;;;;;;;6.70;1.80;;;;;;;20.80;25.37;101340.30;105104;1256;66430;-52
2023/05/02 11:35:20;;;;;;;5.30;1.50;;;;;;;20.88;25.63;101337.30;106096;1260;62915;-46
2023/05/02 11:37:53;;;;;;;5.60;1.50;;;;;;;20.97;25.45;101335.55;105198;1259;60433;-47
2023/05/02 11:40:21;;;;;;;5.60;1.50;;;;;;;21.06;25.14;101335.52;104704;1259;67505;-47